Time;durP1;ratioP1;P1;durP2;ratioP2;P2;SDS_P1;SDS_P2;PMS_P1;PMS_P2;Temp;Humidity;BMP_temperature;BMP_pressure;BME280_temperature;BME280_humidity;BME280_pressure;Samples;Min_cycle;Max_cycle;Signal;HPM_P1;HPM_P2
2022/07/19 00:00:34;;;;;;;;;;;;;;;11.51;62.24;98084.18;110210;1245;59656;-68
2022/07/19 00:03:05;;;;;;;;;;;;;;;11.47;63.39;98085.13;110536;1244;70593;-68
2022/07/19 00:05:34;;;;;;;;;;;;;;;11.43;65.51;98087.34;110376;1245;68639;-68
2022/07/19 00:08:05;;;;;;;;;;;;;;;11.37;66.41;98088.10;110630;1244;69312;-68
2022/07/19 00:10:35;;;;;;;;;;;;;;;11.32;66.81;98086.48;110553;1244;59779;-69
2022/07/19 00:13:04;;;;;;;;;;;;;;;11.28;67.00;98084.64;110395;1244;59667;-68
2022/07/19 00:15:34;;;;;;;;;;;;;;;11.26;66.51;98084.25;110214;1247;71363;-69
2022/07/19 00:18:04;;;;;;;;;;;;;;;11.23;66.18;98081.96;110477;1244;67893;-67
2022/07/19 00:20:34;;;;;;;;;;;;;;;11.22;67.29;98083.05;110566;1244;68457;-70
2022/07/19 00:23:03;;;;;;;;;;;;;;;11.22;67.30;98085.69;110557;1244;59673;-67
2022/07/19 00:25:33;;;;;;;;;;;;;;;11.18;67.24;98085.96;110565;1244;59734;-67
2022/07/19 00:28:03;;;;;;;;;;;;;;;11.12;65.63;98085.45;110568;1244;71804;-68
2022/07/19 00:30:33;;;;;;;;;;;;;;;11.09;66.70;98085.48;110564;1244;68060;-70
2022/07/19 00:33:08;;;;;;;;;;;;;;;11.07;67.68;98086.71;110498;1244;68843;-70
2022/07/19 00:35:39;;;;;;;;;;;;;;;11.03;67.62;98085.55;110565;1244;60085;-68
2022/07/19 00:38:13;;;;;;;;;;;;;;;11.00;68.43;98084.86;110605;1244;59678;-66
2022/07/19 00:40:43;;;;;;;;;;;;;;;10.98;67.32;98085.70;110580;1244;71976;-68
2022/07/19 00:43:13;;;;;;;;;;;;;;;10.95;65.30;98086.41;110549;1244;67643;-68
2022/07/19 00:45:44;;;;;;;;;;;;;;;10.91;63.70;98084.21;110578;1244;68515;-67
2022/07/19 00:48:15;;;;;;;;;;;;;;;10.86;63.90;98082.98;110316;1244;59796;-68
2022/07/19 00:50:46;;;;;;;;;;;;;;;10.80;65.51;98082.83;110587;1244;59661;-69
2022/07/19 00:53:17;;;;;;;;;;;;;;;10.69;69.92;98082.47;110512;1244;70736;-67
2022/07/19 00:55:47;;;;;;;;;;;;;;;10.62;70.23;98082.05;110532;1244;67876;-72
2022/07/19 00:58:17;;;;;;;;;;;;;;;10.54;70.14;98083.38;110604;1244;68637;-70
2022/07/19 01:00:46;;;;;;;;;;;;;;;10.51;69.28;98080.95;110550;1244;59714;-67
2022/07/19 01:03:18;;;;;;;;;;;;;;;10.50;69.48;98078.63;110606;1244;59685;-67
2022/07/19 01:05:48;;;;;;;;;;;;;;;10.47;71.00;98080.15;110555;1244;71541;-67
2022/07/19 01:08:17;;;;;;;;;;;;;;;10.41;70.99;98077.19;110601;1244;68527;-67
2022/07/19 01:10:47;;;;;;;;;;;;;;;10.37;71.01;98076.30;110255;1244;69401;-69
2022/07/19 01:13:17;;;;;;;;;;;;;;;10.33;72.29;98074.42;110496;1244;59673;-71
2022/07/19 01:15:47;;;;;;;;;;;;;;;10.30;70.81;98073.36;110565;1244;59757;-69
2022/07/19 01:18:17;;;;;;;;;;;;;;;10.27;69.38;98069.02;110521;1244;71531;-68
2022/07/19 01:20:47;;;;;;;;;;;;;;;10.27;70.70;98070.65;110594;1244;67784;-68
2022/07/19 01:23:17;;;;;;;;;;;;;;;10.26;72.71;98069.30;110601;1244;69398;-69
2022/07/19 01:25:46;;;;;;;;;;;;;;;10.25;73.46;98070.91;110242;1245;59684;-67
2022/07/19 01:28:16;;;;;;;;;;;;;;;10.25;73.04;98068.47;110544;1244;59708;-68
2022/07/19 01:30:46;;;;;;;;;;;;;;;10.21;72.98;98066.90;110564;1244;71533;-67
2022/07/19 01:33:16;;;;;;;;;;;;;;;10.13;73.13;98060.61;110479;1244;67768;-67
2022/07/19 01:35:47;;;;;;;;;;;;;;;10.04;74.08;98066.02;110591;1244;68322;-69
2022/07/19 01:38:19;;;;;;;;;;;;;;;9.99;74.13;98062.48;110583;1244;59742;-68
2022/07/19 01:40:49;;;;;;;;;;;;;;;9.95;74.34;98061.55;110589;1244;59630;-68
2022/07/19 01:43:20;;;;;;;;;;;;;;;9.91;75.22;98061.91;110572;1244;71722;-68
2022/07/19 01:45:50;;;;;;;;;;;;;;;9.90;75.27;98063.08;110581;1244;68564;-68
2022/07/19 01:48:21;;;;;;;;;;;;;;;9.88;74.60;98063.34;110236;1247;69399;-68
2022/07/19 01:50:50;;;;;;;;;;;;;;;9.86;74.92;98067.15;110254;1244;59708;-67
2022/07/19 01:53:20;;;;;;;;;;;;;;;9.83;74.30;98066.07;110610;1244;59665;-68
2022/07/19 01:55:50;;;;;;;;;;;;;;;9.80;71.96;98067.14;110549;1244;70741;-67
2022/07/19 01:58:20;;;;;;;;;;;;;;;9.78;74.75;98068.83;110543;1244;66697;-69
2022/07/19 02:00:51;;;;;;;;;;;;;;;9.77;75.04;98070.30;110585;1244;68449;-68
2022/07/19 02:03:20;;;;;;;;;;;;;;;9.75;73.72;98071.45;110225;1247;59772;-68
2022/07/19 02:05:50;;;;;;;;;;;;;;;9.72;72.48;98072.48;110613;1244;59698;-68
2022/07/19 02:08:21;;;;;;;;;;;;;;;9.67;70.72;98070.81;110566;1244;71993;-68
2022/07/19 02:10:52;;;;;;;;;;;;;;;9.62;69.27;98074.08;110232;1247;66964;-68
2022/07/19 02:13:23;;;;;;;;;;;;;;;9.57;69.60;98076.46;110498;1244;69585;-70
2022/07/19 02:15:52;;;;;;;;;;;;;;;9.52;76.67;98075.71;110541;1244;59706;-69
2022/07/19 02:18:22;;;;;;;;;;;;;;;9.46;77.95;98072.27;110555;1245;59757;-68
2022/07/19 02:20:52;;;;;;;;;;;;;;;9.41;78.37;98073.56;110487;1244;71581;-67
2022/07/19 02:23:21;;;;;;;;;;;;;;;9.38;78.39;98074.63;110195;1247;67779;-68
2022/07/19 02:25:52;;;;;;;;;;;;;;;9.34;78.04;98076.58;110292;1244;67710;-69
2022/07/19 02:28:22;;;;;;;;;;;;;;;9.33;77.82;98078.74;110575;1244;59987;-68
2022/07/19 02:30:51;;;;;;;;;;;;;;;9.32;77.34;98078.80;110574;1244;60056;-69
2022/07/19 02:33:21;;;;;;;;;;;;;;;9.32;78.81;98077.91;110621;1244;71511;-68
2022/07/19 02:35:53;;;;;;;;;;;;;;;9.34;78.47;98078.34;110621;1244;68584;-69
2022/07/19 02:38:24;;;;;;;;;;;;;;;9.36;78.37;98077.73;110621;1244;69421;-68
2022/07/19 02:40:54;;;;;;;;;;;;;;;9.37;76.80;98076.08;110587;1244;59689;-67
2022/07/19 02:43:24;;;;;;;;;;;;;;;9.36;74.75;98072.13;110558;1244;59637;-67
2022/07/19 02:45:53;;;;;;;;;;;;;;;9.31;76.40;98075.52;110606;1244;70369;-67
2022/07/19 02:48:24;;;;;;;;;;;;;;;9.27;77.65;98078.70;110581;1244;67829;-69
2022/07/19 02:50:54;;;;;;;;;;;;;;;9.23;78.24;98079.30;110569;1244;68677;-69
2022/07/19 02:53:23;;;;;;;;;;;;;;;9.18;73.60;98078.50;110247;1244;59657;-70
2022/07/19 02:55:53;;;;;;;;;;;;;;;9.17;71.72;98077.86;110529;1244;59693;-70
2022/07/19 02:58:26;;;;;;;;;;;;;;;9.17;76.76;98075.26;110286;1244;70727;-69
2022/07/19 03:00:57;;;;;;;;;;;;;;;9.18;78.73;98080.59;110570;1244;68541;-68
2022/07/19 03:03:45;;;;;;;;;;;;;;;9.18;76.93;98080.11;110549;1244;69455;-68
2022/07/19 03:06:16;;;;;;;;;;;;;;;9.11;77.81;98078.57;110437;1244;59704;-67
2022/07/19 03:08:46;;;;;;;;;;;;;;;9.08;78.12;98078.23;110262;1247;59709;-67
2022/07/19 03:11:15;;;;;;;;;;;;;;;9.06;78.25;98076.41;110184;1247;71435;-69
2022/07/19 03:13:45;;;;;;;;;;;;;;;9.06;78.12;98074.34;110312;1247;67634;-68
2022/07/19 03:16:15;;;;;;;;;;;;;;;9.07;75.69;98074.80;110532;1243;69470;-68
2022/07/19 03:18:45;;;;;;;;;;;;;;;9.24;79.10;98083.95;110505;1244;59743;-68
2022/07/19 03:21:14;;;;;;;;;;;;;;;9.33;78.10;98086.23;110527;1244;59709;-68
2022/07/19 03:23:44;;;;;;;;;;;;;;;9.40;78.06;98087.20;110288;1244;70521;-67
2022/07/19 03:26:14;;;;;;;;;;;;;;;9.48;77.88;98090.24;110226;1246;68596;-69
2022/07/19 03:28:43;;;;;;;;;;;;;;;9.56;77.92;98093.25;110383;1243;69399;-68
2022/07/19 03:31:13;;;;;;;;;;;;;;;9.62;76.03;98091.66;110553;1244;59699;-67
2022/07/19 03:33:42;;;;;;;;;;;;;;;9.66;74.87;98091.80;110599;1244;59730;-68
2022/07/19 03:36:12;;;;;;;;;;;;;;;9.71;76.17;98089.23;110583;1244;70683;-68
2022/07/19 03:38:42;;;;;;;;;;;;;;;9.79;76.40;98093.15;110329;1246;68538;-70
2022/07/19 03:41:11;;;;;;;;;;;;;;;9.82;76.00;98092.60;110585;1244;69400;-68
2022/07/19 03:43:41;;;;;;;;;;;;;;;9.86;75.36;98094.08;110565;1244;59727;-67
2022/07/19 03:46:11;;;;;;;;;;;;;;;9.94;76.26;98096.42;110578;1244;59702;-67
2022/07/19 03:48:41;;;;;;;;;;;;;;;9.99;76.05;98096.11;110234;1244;70783;-67
2022/07/19 03:51:11;;;;;;;;;;;;;;;10.04;76.65;98095.97;110482;1244;67795;-68
2022/07/19 03:53:40;;;;;;;;;;;;;;;10.13;76.62;98099.83;110462;1244;69298;-65
2022/07/19 03:56:10;;;;;;;;;;;;;;;10.20;75.98;98100.27;110466;1244;59751;-69
2022/07/19 03:58:41;;;;;;;;;;;;;;;10.26;76.14;98101.11;110424;1244;59694;-67
2022/07/19 04:01:11;;;;;;;;;;;;;;;10.43;75.83;98102.52;110240;1247;71519;-69
2022/07/19 04:03:46;;;;;;;;;;;;;;;10.57;74.95;98101.70;110481;1244;68578;-68
2022/07/19 04:06:16;;;;;;;;;;;;;;;10.66;73.70;98104.06;110408;1244;69406;-67
2022/07/19 04:08:45;;;;;;;;;;;;;;;10.78;74.31;98105.45;110444;1244;59750;-69
2022/07/19 04:11:15;;;;;;;;;;;;;;;10.88;73.23;98106.20;110499;1244;59676;-68
2022/07/19 04:13:45;;;;;;;;;;;;;;;10.99;73.00;98105.00;110449;1244;70737;-68
2022/07/19 04:16:15;;;;;;;;;;;;;;;11.08;72.89;98106.30;110547;1244;66972;-68
2022/07/19 04:18:44;;;;;;;;;;;;;;;11.10;72.04;98106.70;110238;1244;69277;-72
2022/07/19 04:21:14;;;;;;;;;;;;;;;11.06;72.48;98106.63;110459;1244;59689;-73
2022/07/19 04:23:43;;;;;;;;;;;;;;;11.08;71.82;98105.13;110243;1246;59688;-70
2022/07/19 04:26:13;;;;;;;;;;;;;;;11.14;72.00;98104.39;110435;1244;71581;-68
2022/07/19 04:28:42;;;;;;;;;;;;;;;11.25;71.67;98104.05;110493;1244;68422;-66
2022/07/19 04:31:11;;;;;;;;;;;;;;;11.40;71.09;98105.62;110402;1245;68532;-67
2022/07/19 04:33:41;;;;;;;;;;;;;;;11.52;70.97;98105.73;110221;1247;59595;-67
2022/07/19 04:36:10;;;;;;;;;;;;;;;11.58;70.52;98107.82;110430;1246;59685;-68
2022/07/19 04:38:39;;;;;;;;;;;;;;;11.64;71.55;98107.73;110384;1245;70750;-68
2022/07/19 04:41:08;;;;;;;;;;;;;;;11.75;70.63;98104.74;110465;1244;68583;-69
2022/07/19 04:43:37;;;;;;;;;;;;;;;11.89;70.52;98104.34;110158;1247;68738;-67
2022/07/19 04:46:06;;;;;;;;;;;;;;;12.01;70.00;98107.05;110180;1247;59705;-67
2022/07/19 04:48:36;;;;;;;;;;;;;;;12.13;69.86;98107.81;110391;1245;59707;-70
2022/07/19 04:51:05;;;;;;;;;;;;;;;12.25;69.28;98108.20;110392;1245;71598;-69
2022/07/19 04:53:34;;;;;;;;;;;;;;;12.38;69.03;98106.29;110415;1245;68025;-67
2022/07/19 04:56:07;;;;;;;;;;;;;;;12.55;68.49;98104.27;110459;1247;68690;-66
2022/07/19 04:58:36;;;;;;;;;;;;;;;12.67;68.01;98106.15;110427;1245;59589;-67
2022/07/19 05:01:05;;;;;;;;;;;;;;;12.81;67.63;98104.88;110375;1245;59684;-67
2022/07/19 05:03:34;;;;;;;;;;;;;;;12.94;67.21;98105.11;110482;1244;71821;-67
2022/07/19 05:06:03;;;;;;;;;;;;;;;13.11;67.00;98106.03;110394;1245;68506;-69
2022/07/19 05:08:32;;;;;;;;;;;;;;;13.27;66.24;98104.34;110275;1244;68576;-68
2022/07/19 05:11:01;;;;;;;;;;;;;;;13.43;65.97;98106.36;110414;1244;59751;-69
2022/07/19 05:13:30;;;;;;;;;;;;;;;13.64;65.62;98106.69;110490;1244;59658;-70
2022/07/19 05:15:59;;;;;;;;;;;;;;;13.97;64.37;98105.11;110617;1244;70701;-68
2022/07/19 05:18:28;;;;;;;;;;;;;;;14.38;63.02;98110.63;110386;1245;67085;-70
2022/07/19 05:20:57;;;;;;;;;;;;;;;14.87;62.32;98114.15;110180;1247;68731;-70
2022/07/19 05:23:26;;;;;;;;;;;;;;;15.46;61.90;98109.42;110461;1244;59757;-70
2022/07/19 05:25:55;;;;;;;;;;;;;;;16.16;61.62;98108.68;110418;1244;59700;-70
2022/07/19 05:28:23;;;;;;;;;;;;;;;16.67;55.97;98100.97;110571;1244;70825;-70
2022/07/19 05:30:52;;;;;;;;;;;;;;;17.17;55.50;98102.64;110102;1247;68561;-70
2022/07/19 05:33:21;;;;;;;;;;;;;;;17.64;53.06;98105.26;110319;1244;69558;-70
2022/07/19 05:35:50;;;;;;;;;;;;;;;18.14;51.80;98109.16;110361;1244;59737;-70
2022/07/19 05:38:19;;;;;;;;;;;;;;;18.48;51.57;98117.28;110434;1244;59757;-71
2022/07/19 05:40:48;;;;;;;;;;;;;;;18.65;51.08;98114.97;110382;1244;71345;-70
2022/07/19 05:43:17;;;;;;;;;;;;;;;18.94;51.37;98112.80;110226;1244;68040;-71
2022/07/19 05:45:46;;;;;;;;;;;;;;;19.09;49.19;98114.35;110211;1247;68544;-70
2022/07/19 05:48:15;;;;;;;;;;;;;;;19.16;50.10;98109.78;110173;1247;59707;-71
2022/07/19 05:50:44;;;;;;;;;;;;;;;19.14;49.61;98110.13;110345;1242;59729;-70
2022/07/19 05:53:13;;;;;;;;;;;;;;;19.14;48.75;98106.02;110490;1244;71535;-70
2022/07/19 05:55:42;;;;;;;;;;;;;;;19.08;48.38;98103.27;110402;1244;67426;-70
2022/07/19 05:58:11;;;;;;;;;;;;;;;18.92;48.04;98104.13;110352;1244;69468;-70
2022/07/19 06:01:17;;;;;;;;;;;;;;;18.81;47.89;98108.15;110419;1244;60013;-72
2022/07/19 06:03:28;;;;;;;;;;;;;;;18.80;47.93;98107.19;110232;1247;59687;-73
2022/07/19 06:05:57;;;;;;;;;;;;;;;18.71;47.36;98110.56;110330;1244;71595;-72
2022/07/19 06:08:26;;;;;;;;;;;;;;;18.70;47.28;98113.26;110362;1244;68733;-73
2022/07/19 06:10:55;;;;;;;;;;;;;;;18.98;47.39;98106.86;110260;1244;69287;-71
2022/07/19 06:13:24;;;;;;;;;;;;;;;19.31;47.30;98103.68;110231;1244;60146;-71
2022/07/19 06:15:53;;;;;;;;;;;;;;;19.71;46.72;98103.66;110503;1244;59601;-71
2022/07/19 06:18:22;;;;;;;;;;;;;;;20.09;45.19;98106.74;110405;1244;71572;-72
2022/07/19 06:20:51;;;;;;;;;;;;;;;20.54;44.15;98102.05;110387;1244;68978;-69
2022/07/19 06:23:19;;;;;;;;;;;;;;;20.95;43.08;98103.84;110405;1245;69414;-70
2022/07/19 06:25:48;;;;;;;;;;;;;;;21.44;42.90;98105.40;110247;1246;59809;-70
2022/07/19 06:28:17;;;;;;;;;;;;;;;21.73;40.32;98106.14;110405;1244;59704;-70
2022/07/19 06:30:46;;;;;;;;;;;;;;;22.02;40.15;98107.13;110422;1245;71588;-71
2022/07/19 06:33:15;;;;;;;;;;;;;;;22.43;40.68;98111.56;110302;1245;69739;-69
2022/07/19 06:35:44;;;;;;;;;;;;;;;22.86;38.64;98103.93;110463;1244;68679;-72
2022/07/19 06:38:13;;;;;;;;;;;;;;;23.11;37.70;98103.94;110485;1244;59849;-72
2022/07/19 06:40:42;;;;;;;;;;;;;;;23.08;37.03;98107.11;110504;1244;59741;-73
2022/07/19 06:43:11;;;;;;;;;;;;;;;23.26;37.60;98104.69;110185;1247;70783;-73
2022/07/19 06:45:40;;;;;;;;;;;;;;;23.23;36.47;98105.89;110463;1245;67815;-71
2022/07/19 06:48:09;;;;;;;;;;;;;;;23.02;36.52;98106.17;110436;1244;69747;-71
2022/07/19 06:50:37;;;;;;;;;;;;;;;23.30;36.63;98104.03;110508;1244;59738;-70
2022/07/19 06:53:09;;;;;;;;;;;;;;;23.61;36.38;98104.88;110450;1245;59659;-72
2022/07/19 06:55:38;;;;;;;;;;;;;;;23.83;35.61;98104.34;110373;1244;71568;-71
2022/07/19 06:58:07;;;;;;;;;;;;;;;23.76;35.19;98103.64;110357;1244;67708;-70
2022/07/19 07:00:36;;;;;;;;;;;;;;;23.74;35.32;98101.31;110185;1247;69469;-70
2022/07/19 07:03:05;;;;;;;;;;;;;;;24.22;35.15;98102.08;110493;1244;59684;-72
2022/07/19 07:05:34;;;;;;;;;;;;;;;24.63;34.88;98101.89;110415;1245;59666;-73
2022/07/19 07:08:03;;;;;;;;;;;;;;;24.71;33.95;98098.55;110426;1244;70989;-73
2022/07/19 07:10:32;;;;;;;;;;;;;;;24.41;33.61;98097.54;110482;1244;68758;-71
2022/07/19 07:13:01;;;;;;;;;;;;;;;24.60;33.88;98101.90;110425;1244;69456;-72
2022/07/19 07:15:30;;;;;;;;;;;;;;;25.19;33.34;98099.77;110254;1247;59641;-73
2022/07/19 07:17:59;;;;;;;;;;;;;;;25.52;32.16;98099.20;110429;1244;59766;-71
2022/07/19 07:20:28;;;;;;;;;;;;;;;26.12;32.60;98106.55;110493;1244;70969;-71
2022/07/19 07:22:57;;;;;;;;;;;;;;;26.53;31.57;98105.28;110537;1244;68726;-72
2022/07/19 07:25:25;;;;;;;;;;;;;;;26.70;29.77;98107.04;110448;1244;68633;-73
2022/07/19 07:27:54;;;;;;;;;;;;;;;26.75;30.01;98107.66;110405;1244;59707;-73
2022/07/19 07:30:24;;;;;;;;;;;;;;;26.53;29.41;98106.27;110406;1244;59658;-71
2022/07/19 07:32:53;;;;;;;;;;;;;;;26.33;29.31;98103.77;110237;1245;71538;-73
2022/07/19 07:35:22;;;;;;;;;;;;;;;26.49;29.76;98103.88;110220;1247;67850;-72
2022/07/19 07:37:51;;;;;;;;;;;;;;;27.01;30.17;98102.13;110251;1247;69284;-72
2022/07/19 07:40:20;;;;;;;;;;;;;;;27.35;28.52;98099.92;109500;1246;947154;-72
2022/07/19 07:42:49;;;;;;;;;;;;;;;27.51;28.08;98099.70;110226;1246;59681;-72
2022/07/19 07:45:18;;;;;;;;;;;;;;;27.46;28.13;98100.70;110234;1247;71205;-72
2022/07/19 07:47:47;;;;;;;;;;;;;;;26.86;28.37;98103.33;110248;1247;68497;-73
2022/07/19 07:50:16;;;;;;;;;;;;;;;26.60;29.08;98101.93;110198;1247;67546;-72
2022/07/19 07:52:45;;;;;;;;;;;;;;;26.82;30.34;98105.29;110185;1247;59737;-73
2022/07/19 07:55:13;;;;;;;;;;;;;;;26.96;29.42;98101.41;110140;1247;59818;-73
2022/07/19 07:57:58;;;;;;;;;;;;;;;26.96;28.93;98103.89;110130;1247;71345;-72
2022/07/19 08:00:28;;;;;;;;;;;;;;;26.72;29.29;98103.45;110171;1247;68487;-72
2022/07/19 08:02:57;;;;;;;;;;;;;;;26.23;30.02;98102.35;110233;1246;69369;-72
2022/07/19 08:05:26;;;;;;;;;;;;;;;26.74;30.21;98101.11;110232;1247;59666;-73
2022/07/19 08:07:55;;;;;;;;;;;;;;;27.11;28.81;98100.65;110200;1247;59650;-74
2022/07/19 08:10:25;;;;;;;;;;;;;;;27.48;28.71;98098.03;110317;1247;72916;-71
2022/07/19 08:12:54;;;;;;;;;;;;;;;27.80;27.67;98094.69;110172;1247;68632;-72
2022/07/19 08:15:23;;;;;;;;;;;;;;;27.57;27.40;98090.04;110221;1246;69453;-72
2022/07/19 08:17:52;;;;;;;;;;;;;;;27.54;27.72;98092.88;110200;1247;59810;-72
2022/07/19 08:20:20;;;;;;;;;;;;;;;27.79;27.63;98091.16;110168;1247;59674;-71
2022/07/19 08:22:49;;;;;;;;;;;;;;;27.96;26.83;98091.81;110062;1247;71593;-71
2022/07/19 08:25:18;;;;;;;;;;;;;;;27.94;27.06;98090.83;110254;1246;68401;-72
2022/07/19 08:27:47;;;;;;;;;;;;;;;28.32;25.82;98087.81;110207;1247;69760;-72
2022/07/19 08:30:15;;;;;;;;;;;;;;;28.30;25.73;98084.80;110216;1247;59772;-72
2022/07/19 08:32:45;;;;;;;;;;;;;;;28.44;26.00;98082.67;110175;1247;59790;-72
2022/07/19 08:35:13;;;;;;;;;;;;;;;28.23;25.00;98077.88;110216;1247;70768;-72
2022/07/19 08:37:43;;;;;;;;;;;;;;;28.63;25.22;98079.20;110355;1244;69002;-72
2022/07/19 08:40:12;;;;;;;;;;;;;;;29.18;24.81;98069.85;110228;1244;69430;-72
2022/07/19 08:42:42;;;;;;;;;;;;;;;29.23;23.92;98068.95;110177;1245;59725;-72
2022/07/19 08:45:11;;;;;;;;;;;;;;;29.02;24.14;98065.78;110241;1247;59779;-73
2022/07/19 08:47:40;;;;;;;;;;;;;;;29.24;24.39;98060.29;110508;1244;71015;-72
2022/07/19 08:50:11;;;;;;;;;;;;;;;29.41;25.29;98065.05;110146;1247;68509;-72
2022/07/19 08:52:40;;;;;;;;;;;;;;;29.72;25.04;98060.48;110530;1244;68314;-72
2022/07/19 08:55:10;;;;;;;;;;;;;;;29.98;22.37;98062.86;110484;1244;59770;-72
2022/07/19 08:57:57;;;;;;;;;;;;;;;30.24;22.65;98060.27;110571;1244;59735;-72
2022/07/19 09:00:27;;;;;;;;;;;;;;;30.63;22.94;98058.39;110467;1244;70941;-72
2022/07/19 09:02:58;;;;;;;;;;;;;;;30.84;22.72;98057.20;110087;1247;67938;-71
2022/07/19 09:05:27;;;;;;;;;;;;;;;31.22;22.61;98047.59;110378;1244;68629;-71
2022/07/19 09:08:08;;;;;;;;;;;;;;;31.22;22.07;98046.73;110436;1244;59760;-73
2022/07/19 09:10:42;;;;;;;;;;;;;;;31.24;21.95;98042.02;110294;1244;59683;-72
2022/07/19 09:13:12;;;;;;;;;;;;;;;31.65;21.03;98038.95;110343;1244;70772;-73
2022/07/19 09:15:43;;;;;;;;;;;;;;;32.07;21.01;98036.30;110503;1244;67792;-72
2022/07/19 09:18:12;;;;;;;;;;;;;;;32.09;20.71;98032.48;110386;1244;68613;-71
2022/07/19 09:20:41;;;;;;;;;;;;;;;32.06;20.20;98030.85;110289;1245;59760;-74
2022/07/19 09:23:11;;;;;;;;;;;;;;;31.77;19.78;98032.98;110275;1245;59622;-74
2022/07/19 09:25:41;;;;;;;;;;;;;;;31.35;19.54;98028.73;110193;1247;71209;-73
2022/07/19 09:28:09;;;;;;;;;;;;;;;30.70;20.17;98027.98;110166;1247;67814;-72
2022/07/19 09:30:40;;;;;;;;;;;;;;;31.05;21.30;98020.33;110175;1247;67911;-72
2022/07/19 09:33:46;;;;;;;;;;;;;;;31.31;21.25;98022.89;110279;1244;59755;-73
2022/07/19 09:36:14;;;;;;;;;;;;;;;31.99;21.40;98026.40;110483;1244;59750;-72
2022/07/19 09:38:44;;;;;;;;;;;;;;;32.49;20.86;98028.82;110269;1247;71546;-73
2022/07/19 09:41:14;;;;;;;;;;;;;;;32.95;20.43;98024.67;110457;1244;68742;-72
2022/07/19 09:43:59;;;;;;;;;;;;;;;33.03;19.17;98024.82;110502;1244;69684;-72
2022/07/19 09:46:29;;;;;;;;;;;;;;;33.52;18.71;98018.16;110401;1244;59742;-73
2022/07/19 09:49:08;;;;;;;;;;;;;;;32.75;18.61;98016.90;110250;1247;59750;-72
2022/07/19 09:51:38;;;;;;;;;;;;;;;32.85;18.38;98013.03;110209;1247;71378;-73
2022/07/19 09:54:08;;;;;;;;;;;;;;;32.84;19.64;98016.62;110482;1244;66795;-75
2022/07/19 09:56:41;;;;;;;;;;;;;;;32.90;19.23;98007.56;110221;1244;68681;-75
2022/07/19 09:59:10;;;;;;;;;;;;;;;31.55;19.88;98009.17;110388;1244;59788;-75
2022/07/19 10:01:40;;;;;;;;;;;;;;;32.68;19.76;98009.67;110230;1247;59690;-74
2022/07/19 10:04:10;;;;;;;;;;;;;;;32.87;19.08;98009.83;110199;1247;72294;-73
2022/07/19 10:06:40;;;;;;;;;;;;;;;32.39;19.54;98009.55;110285;1245;68629;-72
2022/07/19 10:09:11;;;;;;;;;;;;;;;32.98;18.96;98003.91;110475;1244;69111;-72
2022/07/19 10:11:40;;;;;;;;;;;;;;;32.63;18.80;98004.70;110259;1247;59670;-75
2022/07/19 10:14:12;;;;;;;;;;;;;;;32.58;19.06;98001.09;110430;1244;59776;-75
2022/07/19 10:16:55;;;;;;;;;;;;;;;32.79;18.78;97998.60;110463;1244;71535;-74
2022/07/19 10:19:41;;;;;;;;;;;;;;;32.93;20.00;97992.34;110215;1247;68011;-72
2022/07/19 10:22:19;;;;;;;;;;;;;;;32.94;19.49;97992.36;110352;1244;69334;-72
2022/07/19 10:24:47;;;;;;;;;;;;;;;32.87;19.95;97990.86;110419;1245;59654;-74
2022/07/19 10:27:25;;;;;;;;;;;;;;;32.58;19.84;97987.23;110460;1244;59692;-74
2022/07/19 10:29:57;;;;;;;;;;;;;;;32.89;19.03;97984.85;110444;1244;71560;-75
2022/07/19 10:32:30;;;;;;;;;;;;;;;32.59;19.63;97982.45;110473;1244;68405;-74
2022/07/19 10:35:18;;;;;;;;;;;;;;;32.36;20.58;97982.64;110170;1247;68796;-73
2022/07/19 10:37:50;;;;;;;;;;;;;;;32.35;20.82;97981.38;110166;1247;59749;-73
2022/07/19 10:40:40;;;;;;;;;;;;;;;32.41;20.33;97979.68;110332;1246;60098;-73
2022/07/19 10:43:16;;;;;;;;;;;;;;;32.21;19.91;97979.81;110254;1247;70014;-74
2022/07/19 10:45:57;;;;;;;;;;;;;;;32.32;20.98;97978.42;110270;1247;68576;-73
2022/07/19 10:48:46;;;;;;;;;;;;;;;32.30;20.78;97974.99;110176;1247;68665;-73
2022/07/19 10:51:27;;;;;;;;;;;;;;;32.14;20.76;97974.14;110270;1247;59683;-73
2022/07/19 10:53:57;;;;;;;;;;;;;;;31.83;20.98;97966.55;110242;1247;59752;-74
2022/07/19 10:56:31;;;;;;;;;;;;;;;31.65;20.70;97967.36;110253;1246;71573;-75
2022/07/19 10:59:02;;;;;;;;;;;;;;;31.41;20.58;97964.75;110258;1247;69100;-73
2022/07/19 11:01:33;;;;;;;;;;;;;;;31.44;21.25;97956.02;110212;1247;68872;-74
2022/07/19 11:04:22;;;;;;;;;;;;;;;31.48;21.37;97960.40;110244;1247;59772;-73
2022/07/19 11:07:09;;;;;;;;;;;;;;;31.43;21.00;97960.14;110351;1247;59691;-75
2022/07/19 11:09:45;;;;;;;;;;;;;;;31.59;20.24;97954.40;110373;1247;71720;-74
2022/07/19 11:12:24;;;;;;;;;;;;;;;31.53;20.63;97948.73;110263;1247;68562;-73
2022/07/19 11:14:54;;;;;;;;;;;;;;;31.44;20.68;97953.77;110220;1247;69454;-74
2022/07/19 11:17:56;;;;;;;;;;;;;;;31.57;20.11;97948.45;110288;1247;59757;-75
2022/07/19 11:20:26;;;;;;;;;;;;;;;31.65;20.03;97946.86;110236;1245;59700;-74
2022/07/19 11:22:56;;;;;;;;;;;;;;;31.80;19.61;97944.80;110242;1247;71512;-73
2022/07/19 11:25:29;;;;;;;;;;;;;;;31.88;20.16;97944.20;110120;1248;68623;-73
2022/07/19 11:27:59;;;;;;;;;;;;;;;32.08;20.12;97937.58;110221;1247;68650;-75
2022/07/19 11:30:31;;;;;;;;;;;;;;;31.72;20.37;97931.11;110172;1248;59787;-74
2022/07/19 11:33:01;;;;;;;;;;;;;;;30.90;20.86;97932.08;110264;1247;59634;-73
2022/07/19 11:35:30;;;;;;;;;;;;;;;31.10;22.29;97934.33;110206;1246;71658;-74
2022/07/19 11:38:00;;;;;;;;;;;;;;;31.40;21.37;97937.38;110227;1247;67769;-73
2022/07/19 11:40:33;;;;;;;;;;;;;;;31.81;21.39;97935.09;110160;1248;68470;-72
2022/07/19 11:43:06;;;;;;;;;;;;;;;32.02;21.10;97932.98;110273;1247;59720;-73
2022/07/19 11:45:47;;;;;;;;;;;;;;;32.17;20.81;97934.56;110230;1247;59681;-73
2022/07/19 11:48:23;;;;;;;;;;;;;;;32.35;20.65;97928.27;110283;1247;72142;-74
2022/07/19 11:51:04;;;;;;;;;;;;;;;32.49;20.37;97933.92;110247;1247;69055;-75
2022/07/19 11:53:34;;;;;;;;;;;;;;;32.51;20.20;97932.59;110225;1247;70204;-73
2022/07/19 11:56:03;;;;;;;;;;;;;;;32.47;19.81;97932.50;110223;1247;59775;-74
2022/07/19 11:58:33;;;;;;;;;;;;;;;32.49;19.93;97927.91;110231;1247;59613;-73
2022/07/19 12:01:05;;;;;;;;;;;;;;;32.73;20.06;97927.63;110251;1247;70801;-75
2022/07/19 12:03:34;;;;;;;;;;;;;;;32.57;19.50;97914.85;110281;1247;68630;-74
2022/07/19 12:06:05;;;;;;;;;;;;;;;32.01;19.37;97906.25;110260;1247;69622;-74
2022/07/19 12:08:39;;;;;;;;;;;;;;;32.10;19.82;97903.09;110203;1246;59750;-74
2022/07/19 12:11:21;;;;;;;;;;;;;;;32.25;19.95;97906.12;110149;1248;59637;-73
2022/07/19 12:13:51;;;;;;;;;;;;;;;32.34;20.36;97898.59;110127;1249;71658;-74
2022/07/19 12:16:21;;;;;;;;;;;;;;;32.35;20.30;97901.62;110122;1247;67858;-74
2022/07/19 12:18:54;;;;;;;;;;;;;;;32.23;19.80;97897.70;110184;1247;69542;-72
2022/07/19 12:21:26;;;;;;;;;;;;;;;32.22;20.36;97897.14;110150;1247;59721;-71
2022/07/19 12:24:13;;;;;;;;;;;;;;;32.19;20.05;97891.84;110151;1247;59722;-73
2022/07/19 12:26:44;;;;;;;;;;;;;;;32.18;19.87;97887.58;110257;1246;70762;-74
2022/07/19 12:29:22;;;;;;;;;;;;;;;32.13;20.61;97885.42;110238;1245;67877;-74
2022/07/19 12:31:52;;;;;;;;;;;;;;;32.20;20.13;97886.61;110224;1246;69077;-74
2022/07/19 12:34:21;;;;;;;;;;;;;;;32.33;19.68;97888.45;110224;1247;59732;-74
2022/07/19 12:36:50;;;;;;;;;;;;;;;32.16;18.77;97887.48;109919;1248;59792;-75
2022/07/19 12:39:23;;;;;;;;;;;;;;;31.45;19.68;97881.70;110212;1247;72233;-73
2022/07/19 12:41:54;;;;;;;;;;;;;;;31.51;19.36;97881.32;110437;1244;68730;-74
2022/07/19 12:44:23;;;;;;;;;;;;;;;31.64;19.77;97874.80;110228;1247;69214;-72
2022/07/19 12:46:51;;;;;;;;;;;;;;;31.76;19.54;97874.70;110293;1248;59799;-73
2022/07/19 12:49:41;;;;;;;;;;;;;;;31.68;19.51;97872.81;110442;1244;59718;-73
2022/07/19 12:52:10;;;;;;;;;;;;;;;31.55;19.62;97870.01;110511;1244;71356;-73
2022/07/19 12:54:39;;;;;;;;;;;;;;;31.15;20.27;97864.98;110339;1246;68602;-73
2022/07/19 12:57:08;;;;;;;;;;;;;;;30.78;20.90;97861.00;110262;1247;69429;-73